sensor_id;sensor_type;location;lat;lon;timestamp;pressure;altitude;pressure_sealevel;temperature;humidity
33265;BME280;31404;53.974;-1.086;2023-04-27T00:00:35;101772.74;;;7.75;63.08
33265;BME280;31404;53.974;-1.086;2023-04-27T00:05:34;101778.21;;;7.35;66.32
33265;BME280;31404;53.974;-1.086;2023-04-27T00:10:34;101784.96;;;7.09;67.08
33265;BME280;31404;53.974;-1.086;2023-04-27T00:15:34;101791.45;;;5.67;72.65
33265;BME280;31404;53.974;-1.086;2023-04-27T00:20:34;101797.68;;;5.90;71.17
33265;BME280;31404;53.974;-1.086;2023-04-27T00:25:34;101793.01;;;6.09;71.32
33265;BME280;31404;53.974;-1.086;2023-04-27T00:30:34;101787.28;;;6.75;70.19
33265;BME280;31404;53.974;-1.086;2023-04-27T00:35:34;101790.90;;;6.54;70.26
33265;BME280;31404;53.974;-1.086;2023-04-27T00:40:34;101794.60;;;6.26;70.99
33265;BME280;31404;53.974;-1.086;2023-04-27T00:45:40;101781.01;;;6.06;72.53
33265;BME280;31404;53.974;-1.086;2023-04-27T00:50:35;101776.14;;;7.79;66.61
33265;BME280;31404;53.974;-1.086;2023-04-27T00:55:34;101769.28;;;6.24;71.25
33265;BME280;31404;53.974;-1.086;2023-04-27T01:00:35;101761.80;;;5.81;74.19
33265;BME280;31404;53.974;-1.086;2023-04-27T01:05:36;101763.54;;;4.51;78.61
33265;BME280;31404;53.974;-1.086;2023-04-27T01:10:35;101761.07;;;5.24;76.73
33265;BME280;31404;53.974;-1.086;2023-04-27T01:15:35;101759.45;;;5.03;77.86
33265;BME280;31404;53.974;-1.086;2023-04-27T01:20:35;101760.44;;;5.33;75.64
33265;BME280;31404;53.974;-1.086;2023-04-27T01:25:35;101762.41;;;4.80;79.21
33265;BME280;31404;53.974;-1.086;2023-04-27T01:30:35;101756.38;;;7.27;69.15
33265;BME280;31404;53.974;-1.086;2023-04-27T01:35:35;101752.85;;;5.39;74.58
33265;BME280;31404;53.974;-1.086;2023-04-27T01:40:35;101751.35;;;6.93;72.16
33265;BME280;31404;53.974;-1.086;2023-04-27T01:45:35;101746.71;;;6.74;71.38
33265;BME280;31404;53.974;-1.086;2023-04-27T01:50:37;101751.63;;;5.30;75.93
33265;BME280;31404;53.974;-1.086;2023-04-27T01:55:35;101749.91;;;6.61;71.23
33265;BME280;31404;53.974;-1.086;2023-04-27T02:00:35;101745.01;;;7.53;67.39
33265;BME280;31404;53.974;-1.086;2023-04-27T02:05:35;101743.72;;;6.03;72.38
33265;BME280;31404;53.974;-1.086;2023-04-27T02:10:35;101748.95;;;5.82;74.01
33265;BME280;31404;53.974;-1.086;2023-04-27T02:15:35;101744.17;;;6.61;71.30
33265;BME280;31404;53.974;-1.086;2023-04-27T02:20:34;101739.56;;;5.96;74.11
33265;BME280;31404;53.974;-1.086;2023-04-27T02:25:35;101740.27;;;6.55;72.60
33265;BME280;31404;53.974;-1.086;2023-04-27T02:30:36;101743.90;;;7.15;71.20
33265;BME280;31404;53.974;-1.086;2023-04-27T02:35:34;101746.41;;;7.31;69.73
33265;BME280;31404;53.974;-1.086;2023-04-27T02:40:34;101740.41;;;6.58;72.82
33265;BME280;31404;53.974;-1.086;2023-04-27T02:45:36;101742.36;;;6.57;70.94
33265;BME280;31404;53.974;-1.086;2023-04-27T02:55:35;101749.21;;;6.74;71.58
33265;BME280;31404;53.974;-1.086;2023-04-27T03:00:35;101749.39;;;6.08;72.98
33265;BME280;31404;53.974;-1.086;2023-04-27T03:05:35;101750.23;;;5.96;73.56
33265;BME280;31404;53.974;-1.086;2023-04-27T03:10:35;101753.14;;;4.47;79.69
33265;BME280;31404;53.974;-1.086;2023-04-27T03:15:34;101744.63;;;4.96;78.28
33265;BME280;31404;53.974;-1.086;2023-04-27T03:20:34;101747.79;;;4.47;80.26
33265;BME280;31404;53.974;-1.086;2023-04-27T03:25:35;101753.09;;;4.68;78.57
33265;BME280;31404;53.974;-1.086;2023-04-27T03:35:34;101752.08;;;4.18;82.11
33265;BME280;31404;53.974;-1.086;2023-04-27T03:40:34;101754.04;;;4.34;82.29
33265;BME280;31404;53.974;-1.086;2023-04-27T03:45:34;101745.72;;;4.58;79.62
33265;BME280;31404;53.974;-1.086;2023-04-27T03:50:34;101742.89;;;4.40;81.38
33265;BME280;31404;53.974;-1.086;2023-04-27T03:55:39;101732.45;;;4.93;79.62
33265;BME280;31404;53.974;-1.086;2023-04-27T04:00:35;101734.94;;;4.84;79.18
33265;BME280;31404;53.974;-1.086;2023-04-27T04:05:34;101733.35;;;4.41;80.40
33265;BME280;31404;53.974;-1.086;2023-04-27T04:10:34;101726.92;;;3.39;85.78
33265;BME280;31404;53.974;-1.086;2023-04-27T04:15:34;101725.31;;;3.25;86.97
33265;BME280;31404;53.974;-1.086;2023-04-27T04:20:35;101718.32;;;3.99;85.13
33265;BME280;31404;53.974;-1.086;2023-04-27T04:25:35;101713.21;;;3.93;85.04
33265;BME280;31404;53.974;-1.086;2023-04-27T04:30:35;101707.31;;;5.19;79.00
33265;BME280;31404;53.974;-1.086;2023-04-27T04:35:37;101705.39;;;4.48;81.43
33265;BME280;31404;53.974;-1.086;2023-04-27T04:40:37;101699.25;;;3.84;84.99
33265;BME280;31404;53.974;-1.086;2023-04-27T04:45:37;101696.35;;;3.35;87.99
33265;BME280;31404;53.974;-1.086;2023-04-27T04:50:35;101699.38;;;3.27;89.20
33265;BME280;31404;53.974;-1.086;2023-04-27T04:55:36;101702.83;;;4.02;85.79
33265;BME280;31404;53.974;-1.086;2023-04-27T05:00:34;101703.18;;;3.67;89.21
33265;BME280;31404;53.974;-1.086;2023-04-27T05:05:34;101702.70;;;4.38;83.63
33265;BME280;31404;53.974;-1.086;2023-04-27T05:10:34;101700.83;;;3.40;87.54
33265;BME280;31404;53.974;-1.086;2023-04-27T05:15:36;101696.57;;;3.78;86.86
33265;BME280;31404;53.974;-1.086;2023-04-27T05:20:35;101705.81;;;4.04;86.36
33265;BME280;31404;53.974;-1.086;2023-04-27T05:25:37;101705.99;;;4.46;82.17
33265;BME280;31404;53.974;-1.086;2023-04-27T05:30:35;101702.44;;;6.05;74.70
33265;BME280;31404;53.974;-1.086;2023-04-27T05:35:35;101701.92;;;7.26;70.90
33265;BME280;31404;53.974;-1.086;2023-04-27T05:40:34;101705.56;;;7.24;70.15
33265;BME280;31404;53.974;-1.086;2023-04-27T05:50:35;101719.19;;;6.46;72.88
33265;BME280;31404;53.974;-1.086;2023-04-27T05:55:34;101713.83;;;5.48;76.22
33265;BME280;31404;53.974;-1.086;2023-04-27T06:00:34;101720.48;;;5.62;75.12
33265;BME280;31404;53.974;-1.086;2023-04-27T06:05:34;101725.83;;;5.27;75.04
33265;BME280;31404;53.974;-1.086;2023-04-27T06:10:34;101724.21;;;5.49;76.89
33265;BME280;31404;53.974;-1.086;2023-04-27T06:15:34;101727.47;;;4.81;81.59
33265;BME280;31404;53.974;-1.086;2023-04-27T06:20:35;101727.92;;;4.43;82.23
33265;BME280;31404;53.974;-1.086;2023-04-27T06:25:35;101720.45;;;5.95;75.87
33265;BME280;31404;53.974;-1.086;2023-04-27T06:30:40;101718.43;;;4.50;80.05
33265;BME280;31404;53.974;-1.086;2023-04-27T06:35:35;101710.71;;;5.05;80.73
33265;BME280;31404;53.974;-1.086;2023-04-27T06:40:35;101714.47;;;4.77;79.65
33265;BME280;31404;53.974;-1.086;2023-04-27T06:45:35;101709.46;;;4.97;80.61
33265;BME280;31404;53.974;-1.086;2023-04-27T06:50:34;101709.81;;;5.89;78.97
33265;BME280;31404;53.974;-1.086;2023-04-27T06:55:34;101708.51;;;5.76;79.09
33265;BME280;31404;53.974;-1.086;2023-04-27T07:00:35;101703.62;;;4.93;82.37
33265;BME280;31404;53.974;-1.086;2023-04-27T07:15:39;101713.47;;;4.46;86.48
33265;BME280;31404;53.974;-1.086;2023-04-27T07:20:37;101714.81;;;4.55;87.41
33265;BME280;31404;53.974;-1.086;2023-04-27T07:25:35;101709.71;;;5.27;80.90
33265;BME280;31404;53.974;-1.086;2023-04-27T07:30:35;101714.24;;;5.93;81.60
33265;BME280;31404;53.974;-1.086;2023-04-27T07:35:34;101708.26;;;6.63;78.11
33265;BME280;31404;53.974;-1.086;2023-04-27T07:40:35;101699.70;;;7.30;75.54
33265;BME280;31404;53.974;-1.086;2023-04-27T07:45:35;101706.84;;;6.83;78.64
33265;BME280;31404;53.974;-1.086;2023-04-27T07:50:35;101711.52;;;5.85;81.70
33265;BME280;31404;53.974;-1.086;2023-04-27T07:55:35;101705.15;;;6.97;79.18
33265;BME280;31404;53.974;-1.086;2023-04-27T08:00:35;101708.62;;;6.41;80.78
33265;BME280;31404;53.974;-1.086;2023-04-27T08:05:37;101713.47;;;6.27;80.99
33265;BME280;31404;53.974;-1.086;2023-04-27T08:10:30;101704.09;;;6.36;81.62
33265;BME280;31404;53.974;-1.086;2023-04-27T08:15:35;101695.31;;;7.39;77.61
33265;BME280;31404;53.974;-1.086;2023-04-27T08:20:34;101686.93;;;7.15;79.89
33265;BME280;31404;53.974;-1.086;2023-04-27T08:25:35;101681.09;;;6.38;82.94
33265;BME280;31404;53.974;-1.086;2023-04-27T08:30:34;101674.11;;;7.25;78.61
33265;BME280;31404;53.974;-1.086;2023-04-27T08:35:34;101676.34;;;6.52;84.11
33265;BME280;31404;53.974;-1.086;2023-04-27T08:40:35;101662.54;;;8.19;76.42
33265;BME280;31404;53.974;-1.086;2023-04-27T08:45:35;101662.21;;;7.50;78.49
33265;BME280;31404;53.974;-1.086;2023-04-27T08:50:38;101659.91;;;7.16;81.51
33265;BME280;31404;53.974;-1.086;2023-04-27T08:55:34;101666.69;;;5.97;87.11
33265;BME280;31404;53.974;-1.086;2023-04-27T09:00:38;101661.91;;;7.68;83.05
33265;BME280;31404;53.974;-1.086;2023-04-27T09:05:34;101650.91;;;6.73;88.02
33265;BME280;31404;53.974;-1.086;2023-04-27T09:25:35;101634.90;;;9.50;72.03
33265;BME280;31404;53.974;-1.086;2023-04-27T09:30:35;101620.98;;;9.83;71.21
33265;BME280;31404;53.974;-1.086;2023-04-27T09:35:34;101606.26;;;10.82;68.93
33265;BME280;31404;53.974;-1.086;2023-04-27T09:40:34;101612.51;;;9.26;73.96
33265;BME280;31404;53.974;-1.086;2023-04-27T09:45:35;101608.02;;;9.33;72.48
33265;BME280;31404;53.974;-1.086;2023-04-27T09:50:35;101603.90;;;9.19;73.49
33265;BME280;31404;53.974;-1.086;2023-04-27T09:55:39;101600.88;;;8.34;73.61
33265;BME280;31404;53.974;-1.086;2023-04-27T10:20:36;101579.57;;;7.75;75.43
33265;BME280;31404;53.974;-1.086;2023-04-27T10:25:38;101577.27;;;8.75;72.65
33265;BME280;31404;53.974;-1.086;2023-04-27T10:30:35;101567.33;;;10.50;69.12
33265;BME280;31404;53.974;-1.086;2023-04-27T10:35:36;101563.16;;;10.85;66.65
33265;BME280;31404;53.974;-1.086;2023-04-27T10:40:35;101569.51;;;8.44;73.45
33265;BME280;31404;53.974;-1.086;2023-04-27T10:45:35;101564.21;;;9.15;71.61
33265;BME280;31404;53.974;-1.086;2023-04-27T10:50:35;101549.87;;;10.16;69.35
33265;BME280;31404;53.974;-1.086;2023-04-27T10:55:35;101548.42;;;8.87;72.10
33265;BME280;31404;53.974;-1.086;2023-04-27T11:00:37;101538.46;;;8.47;72.05
33265;BME280;31404;53.974;-1.086;2023-04-27T11:05:34;101538.13;;;9.37;70.85
33265;BME280;31404;53.974;-1.086;2023-04-27T11:10:37;101532.76;;;9.85;68.60
33265;BME280;31404;53.974;-1.086;2023-04-27T11:20:34;101523.80;;;9.59;68.52
33265;BME280;31404;53.974;-1.086;2023-04-27T11:25:35;101517.48;;;9.72;66.96
33265;BME280;31404;53.974;-1.086;2023-04-27T11:30:35;101508.60;;;9.18;68.61
33265;BME280;31404;53.974;-1.086;2023-04-27T11:35:35;101498.67;;;10.17;68.09
33265;BME280;31404;53.974;-1.086;2023-04-27T11:40:35;101492.24;;;10.85;64.71
33265;BME280;31404;53.974;-1.086;2023-04-27T11:45:35;101491.32;;;9.70;65.46
33265;BME280;31404;53.974;-1.086;2023-04-27T11:50:37;101491.30;;;9.75;65.14
33265;BME280;31404;53.974;-1.086;2023-04-27T11:55:35;101486.29;;;9.15;67.83
33265;BME280;31404;53.974;-1.086;2023-04-27T12:00:35;101475.77;;;9.61;66.95
33265;BME280;31404;53.974;-1.086;2023-04-27T12:05:35;101476.04;;;9.81;66.11
33265;BME280;31404;53.974;-1.086;2023-04-27T12:10:34;101478.45;;;10.30;64.60
33265;BME280;31404;53.974;-1.086;2023-04-27T12:15:34;101465.40;;;10.59;61.03
33265;BME280;31404;53.974;-1.086;2023-04-27T12:20:35;101469.89;;;9.49;65.23
33265;BME280;31404;53.974;-1.086;2023-04-27T12:25:35;101465.59;;;9.31;64.70
33265;BME280;31404;53.974;-1.086;2023-04-27T12:30:35;101456.47;;;9.53;64.64
33265;BME280;31404;53.974;-1.086;2023-04-27T12:35:35;101460.65;;;10.05;62.41
33265;BME280;31404;53.974;-1.086;2023-04-27T12:40:35;101459.29;;;9.61;64.15
33265;BME280;31404;53.974;-1.086;2023-04-27T12:45:35;101453.33;;;9.66;63.98
33265;BME280;31404;53.974;-1.086;2023-04-27T12:50:36;101447.28;;;9.97;63.67
33265;BME280;31404;53.974;-1.086;2023-04-27T12:55:34;101439.78;;;11.35;60.76
33265;BME280;31404;53.974;-1.086;2023-04-27T13:00:35;101429.33;;;10.41;63.00
33265;BME280;31404;53.974;-1.086;2023-04-27T13:05:34;101417.85;;;10.54;61.56
33265;BME280;31404;53.974;-1.086;2023-04-27T13:10:35;101412.49;;;9.40;64.93
33265;BME280;31404;53.974;-1.086;2023-04-27T13:15:35;101416.06;;;9.91;63.88
33265;BME280;31404;53.974;-1.086;2023-04-27T13:20:34;101411.25;;;9.57;64.59
33265;BME280;31404;53.974;-1.086;2023-04-27T13:25:34;101403.35;;;10.87;62.09
33265;BME280;31404;53.974;-1.086;2023-04-27T13:30:34;101397.18;;;10.03;63.69
33265;BME280;31404;53.974;-1.086;2023-04-27T13:35:33;101401.10;;;9.79;65.15
33265;BME280;31404;53.974;-1.086;2023-04-27T13:40:35;101390.71;;;9.48;65.45
33265;BME280;31404;53.974;-1.086;2023-04-27T13:45:34;101392.24;;;10.34;64.47
33265;BME280;31404;53.974;-1.086;2023-04-27T13:50:35;101384.85;;;10.75;63.35
33265;BME280;31404;53.974;-1.086;2023-04-27T13:55:34;101378.37;;;11.45;61.76
33265;BME280;31404;53.974;-1.086;2023-04-27T14:00:34;101373.43;;;10.16;64.71
33265;BME280;31404;53.974;-1.086;2023-04-27T14:05:35;101371.38;;;11.31;61.28
33265;BME280;31404;53.974;-1.086;2023-04-27T14:10:35;101365.79;;;9.76;65.68
33265;BME280;31404;53.974;-1.086;2023-04-27T14:15:34;101355.20;;;11.37;60.04
33265;BME280;31404;53.974;-1.086;2023-04-27T14:20:35;101354.36;;;11.16;59.89
33265;BME280;31404;53.974;-1.086;2023-04-27T14:25:35;101367.03;;;9.54;62.71
33265;BME280;31404;53.974;-1.086;2023-04-27T14:30:35;101354.23;;;9.25;64.02
33265;BME280;31404;53.974;-1.086;2023-04-27T14:35:35;101350.72;;;11.13;60.27
33265;BME280;31404;53.974;-1.086;2023-04-27T14:40:35;101337.56;;;11.07;60.59
33265;BME280;31404;53.974;-1.086;2023-04-27T14:45:35;101337.50;;;10.78;60.64
33265;BME280;31404;53.974;-1.086;2023-04-27T14:50:35;101338.35;;;10.03;63.05
33265;BME280;31404;53.974;-1.086;2023-04-27T14:55:35;101341.50;;;8.52;66.54
33265;BME280;31404;53.974;-1.086;2023-04-27T15:00:34;101334.45;;;9.65;65.98
33265;BME280;31404;53.974;-1.086;2023-04-27T15:05:34;101322.41;;;11.95;63.16
33265;BME280;31404;53.974;-1.086;2023-04-27T15:10:34;101315.36;;;10.74;62.90
33265;BME280;31404;53.974;-1.086;2023-04-27T15:15:34;101305.05;;;10.52;68.20
33265;BME280;31404;53.974;-1.086;2023-04-27T15:20:35;101302.18;;;11.02;69.82
33265;BME280;31404;53.974;-1.086;2023-04-27T15:25:34;101297.77;;;10.12;73.13
33265;BME280;31404;53.974;-1.086;2023-04-27T15:30:35;101293.14;;;10.26;73.33
33265;BME280;31404;53.974;-1.086;2023-04-27T15:35:35;101293.86;;;10.18;73.94
33265;BME280;31404;53.974;-1.086;2023-04-27T15:40:35;101295.09;;;10.18;74.73
33265;BME280;31404;53.974;-1.086;2023-04-27T15:45:35;101282.29;;;10.72;72.59
33265;BME280;31404;53.974;-1.086;2023-04-27T15:50:35;101278.96;;;10.14;73.57
33265;BME280;31404;53.974;-1.086;2023-04-27T15:55:35;101276.05;;;9.55;77.48
33265;BME280;31404;53.974;-1.086;2023-04-27T16:00:35;101274.77;;;9.58;77.62
33265;BME280;31404;53.974;-1.086;2023-04-27T16:05:34;101269.60;;;10.13;75.63
33265;BME280;31404;53.974;-1.086;2023-04-27T16:10:34;101262.30;;;10.96;72.89
33265;BME280;31404;53.974;-1.086;2023-04-27T16:15:37;101269.44;;;11.04;72.28
33265;BME280;31404;53.974;-1.086;2023-04-27T16:20:34;101265.55;;;10.05;76.42
33265;BME280;31404;53.974;-1.086;2023-04-27T16:25:34;101262.31;;;9.89;74.64
33265;BME280;31404;53.974;-1.086;2023-04-27T16:30:36;101259.96;;;10.27;75.19
33265;BME280;31404;53.974;-1.086;2023-04-27T16:35:35;101252.34;;;10.12;75.87
33265;BME280;31404;53.974;-1.086;2023-04-27T16:40:35;101243.72;;;10.81;74.51
33265;BME280;31404;53.974;-1.086;2023-04-27T16:45:35;101234.17;;;10.70;74.05
33265;BME280;31404;53.974;-1.086;2023-04-27T16:50:35;101225.37;;;9.43;76.66
33265;BME280;31404;53.974;-1.086;2023-04-27T16:55:34;101223.90;;;9.59;75.79
33265;BME280;31404;53.974;-1.086;2023-04-27T17:00:35;101214.88;;;9.11;76.14
33265;BME280;31404;53.974;-1.086;2023-04-27T17:05:35;101203.04;;;9.50;73.15
33265;BME280;31404;53.974;-1.086;2023-04-27T17:10:35;101203.06;;;9.76;70.50
33265;BME280;31404;53.974;-1.086;2023-04-27T17:15:35;101199.15;;;9.43;71.15
33265;BME280;31404;53.974;-1.086;2023-04-27T17:20:34;101195.71;;;9.33;71.80
33265;BME280;31404;53.974;-1.086;2023-04-27T17:25:35;101204.93;;;9.21;69.59
33265;BME280;31404;53.974;-1.086;2023-04-27T17:30:34;101203.87;;;8.95;70.73
33265;BME280;31404;53.974;-1.086;2023-04-27T17:35:34;101207.18;;;7.54;76.09
33265;BME280;31404;53.974;-1.086;2023-04-27T17:40:34;101217.11;;;8.41;72.32
33265;BME280;31404;53.974;-1.086;2023-04-27T17:45:34;101215.14;;;7.93;72.76
33265;BME280;31404;53.974;-1.086;2023-04-27T17:50:36;101217.91;;;7.33;76.10
33265;BME280;31404;53.974;-1.086;2023-04-27T17:55:34;101213.56;;;8.02;73.13
33265;BME280;31404;53.974;-1.086;2023-04-27T18:00:34;101212.19;;;7.85;74.33
33265;BME280;31404;53.974;-1.086;2023-04-27T18:05:34;101213.16;;;7.19;77.58
33265;BME280;31404;53.974;-1.086;2023-04-27T18:10:34;101206.10;;;7.97;75.40
33265;BME280;31404;53.974;-1.086;2023-04-27T18:15:34;101210.00;;;7.07;79.58
33265;BME280;31404;53.974;-1.086;2023-04-27T18:20:35;101211.23;;;7.72;77.71
33265;BME280;31404;53.974;-1.086;2023-04-27T18:25:35;101214.41;;;6.96;78.51
33265;BME280;31404;53.974;-1.086;2023-04-27T18:30:35;101216.01;;;6.29;83.10
33265;BME280;31404;53.974;-1.086;2023-04-27T18:35:35;101202.48;;;8.08;74.85
33265;BME280;31404;53.974;-1.086;2023-04-27T18:40:35;101206.03;;;7.33;77.75
33265;BME280;31404;53.974;-1.086;2023-04-27T18:45:42;101200.19;;;6.56;82.89
33265;BME280;31404;53.974;-1.086;2023-04-27T18:50:36;101198.66;;;7.58;78.78
33265;BME280;31404;53.974;-1.086;2023-04-27T18:55:29;101197.86;;;6.07;87.51
33265;BME280;31404;53.974;-1.086;2023-04-27T19:00:35;101199.84;;;6.87;85.84
33265;BME280;31404;53.974;-1.086;2023-04-27T19:05:34;101197.12;;;7.41;85.67
33265;BME280;31404;53.974;-1.086;2023-04-27T19:10:34;101193.59;;;6.99;89.29
33265;BME280;31404;53.974;-1.086;2023-04-27T19:15:34;101189.43;;;7.76;86.74
33265;BME280;31404;53.974;-1.086;2023-04-27T19:20:35;101185.23;;;8.37;86.46
33265;BME280;31404;53.974;-1.086;2023-04-27T19:25:35;101183.92;;;8.42;87.57
33265;BME280;31404;53.974;-1.086;2023-04-27T19:30:35;101179.15;;;9.45;81.07
33265;BME280;31404;53.974;-1.086;2023-04-27T19:35:35;101182.66;;;8.02;88.82
33265;BME280;31404;53.974;-1.086;2023-04-27T19:40:35;101182.20;;;8.21;86.08
33265;BME280;31404;53.974;-1.086;2023-04-27T19:45:34;101183.59;;;8.71;83.23
33265;BME280;31404;53.974;-1.086;2023-04-27T19:50:34;101181.94;;;7.91;87.16
33265;BME280;31404;53.974;-1.086;2023-04-27T19:55:34;101179.88;;;6.55;89.61
33265;BME280;31404;53.974;-1.086;2023-04-27T20:00:35;101176.88;;;7.65;86.24
33265;BME280;31404;53.974;-1.086;2023-04-27T20:05:35;101178.34;;;7.00;88.40
33265;BME280;31404;53.974;-1.086;2023-04-27T20:10:35;101173.44;;;6.84;88.48
33265;BME280;31404;53.974;-1.086;2023-04-27T20:15:35;101169.60;;;7.49;84.36
33265;BME280;31404;53.974;-1.086;2023-04-27T20:20:34;101167.06;;;6.92;87.36
33265;BME280;31404;53.974;-1.086;2023-04-27T20:25:34;101162.78;;;7.23;85.69
33265;BME280;31404;53.974;-1.086;2023-04-27T20:30:34;101151.81;;;8.48;79.02
33265;BME280;31404;53.974;-1.086;2023-04-27T20:35:34;101152.12;;;7.85;83.81
33265;BME280;31404;53.974;-1.086;2023-04-27T20:40:36;101161.42;;;7.32;87.55
33265;BME280;31404;53.974;-1.086;2023-04-27T20:45:35;101161.57;;;7.19;88.55
33265;BME280;31404;53.974;-1.086;2023-04-27T20:50:35;101157.71;;;8.89;81.65
33265;BME280;31404;53.974;-1.086;2023-04-27T20:55:34;101154.65;;;7.66;87.03
33265;BME280;31404;53.974;-1.086;2023-04-27T21:00:34;101151.24;;;7.85;87.51
33265;BME280;31404;53.974;-1.086;2023-04-27T21:05:34;101151.92;;;7.43;89.88
33265;BME280;31404;53.974;-1.086;2023-04-27T21:10:34;101140.50;;;7.79;89.77
33265;BME280;31404;53.974;-1.086;2023-04-27T21:15:34;101139.85;;;6.36;97.35
33265;BME280;31404;53.974;-1.086;2023-04-27T21:20:34;101137.88;;;8.63;88.30
33265;BME280;31404;53.974;-1.086;2023-04-27T21:25:34;101130.02;;;9.00;86.08
33265;BME280;31404;53.974;-1.086;2023-04-27T21:30:34;101129.70;;;7.82;93.63
33265;BME280;31404;53.974;-1.086;2023-04-27T21:35:34;101122.47;;;8.65;87.81
33265;BME280;31404;53.974;-1.086;2023-04-27T21:40:34;101122.25;;;7.22;94.33
33265;BME280;31404;53.974;-1.086;2023-04-27T21:45:34;101116.28;;;6.35;99.93
33265;BME280;31404;53.974;-1.086;2023-04-27T21:50:34;101101.43;;;8.08;93.11
33265;BME280;31404;53.974;-1.086;2023-04-27T21:55:34;101101.69;;;8.11;90.93
33265;BME280;31404;53.974;-1.086;2023-04-27T22:00:35;101092.39;;;8.21;91.38
33265;BME280;31404;53.974;-1.086;2023-04-27T22:05:35;101084.93;;;8.11;91.64
33265;BME280;31404;53.974;-1.086;2023-04-27T22:10:35;101085.48;;;8.69;87.43
33265;BME280;31404;53.974;-1.086;2023-04-27T22:15:35;101088.36;;;8.12;89.12
33265;BME280;31404;53.974;-1.086;2023-04-27T22:20:34;101081.52;;;6.74;100.00
33265;BME280;31404;53.974;-1.086;2023-04-27T22:25:34;101078.59;;;6.16;100.00
33265;BME280;31404;53.974;-1.086;2023-04-27T22:30:34;101069.96;;;7.71;96.39
33265;BME280;31404;53.974;-1.086;2023-04-27T22:35:35;101068.86;;;8.22;91.91
33265;BME280;31404;53.974;-1.086;2023-04-27T22:40:34;101063.20;;;8.22;92.95
33265;BME280;31404;53.974;-1.086;2023-04-27T22:45:34;101062.70;;;7.18;95.88
33265;BME280;31404;53.974;-1.086;2023-04-27T22:50:35;101060.04;;;5.79;100.00
33265;BME280;31404;53.974;-1.086;2023-04-27T22:55:35;101052.08;;;5.46;100.00
33265;BME280;31404;53.974;-1.086;2023-04-27T23:00:37;101049.70;;;5.46;100.00
33265;BME280;31404;53.974;-1.086;2023-04-27T23:05:34;101046.64;;;6.65;100.00
33265;BME280;31404;53.974;-1.086;2023-04-27T23:10:34;101041.89;;;6.47;100.00
33265;BME280;31404;53.974;-1.086;2023-04-27T23:15:34;101040.09;;;4.47;100.00
33265;BME280;31404;53.974;-1.086;2023-04-27T23:20:35;101038.61;;;5.95;100.00
33265;BME280;31404;53.974;-1.086;2023-04-27T23:25:35;101035.24;;;4.69;100.00
33265;BME280;31404;53.974;-1.086;2023-04-27T23:30:35;101030.13;;;5.79;100.00
33265;BME280;31404;53.974;-1.086;2023-04-27T23:35:35;101023.89;;;5.54;100.00
33265;BME280;31404;53.974;-1.086;2023-04-27T23:40:34;101026.40;;;4.70;100.00
33265;BME280;31404;53.974;-1.086;2023-04-27T23:45:34;101018.62;;;5.46;100.00
33265;BME280;31404;53.974;-1.086;2023-04-27T23:50:34;101015.08;;;6.60;100.00
33265;BME280;31404;53.974;-1.086;2023-04-27T23:55:35;101004.61;;;4.41;100.00
